Time;durP1;ratioP1;P1;durP2;ratioP2;P2;SDS_P1;SDS_P2;PMS_P1;PMS_P2;Temp;Humidity;BMP_temperature;BMP_pressure;BME280_temperature;BME280_humidity;BME280_pressure;Samples;Min_cycle;Max_cycle;Signal;HPM_P1;HPM_P2
2023/06/09 00:01:35;;;;;;;11.23;5.60;;;18.50;96.80;;;;;;5125668;27;45392;-73
2023/06/09 00:04:02;;;;;;;6.78;4.63;;;18.60;96.20;;;;;;5118332;27;46617;-72
2023/06/09 00:06:30;;;;;;;8.82;4.93;;;18.70;96.00;;;;;;5119317;27;45289;-72
2023/06/09 00:08:57;;;;;;;7.47;5.30;;;18.70;96.10;;;;;;5118726;27;45405;-72
2023/06/09 00:11:25;;;;;;;9.52;5.72;;;18.60;96.20;;;;;;5124466;27;45471;-72
2023/06/09 00:13:52;;;;;;;7.32;5.65;;;18.60;96.20;;;;;;5129008;27;47608;-72
2023/06/09 00:16:21;;;;;;;10.23;6.00;;;18.60;96.00;;;;;;5118496;27;45367;-72
2023/06/09 00:18:47;;;;;;;11.38;5.45;;;18.60;95.90;;;;;;5121092;27;45416;-73
2023/06/09 00:21:17;;;;;;;7.43;5.47;;;18.60;95.90;;;;;;5128835;27;45559;-72
2023/06/09 00:23:44;;;;;;;7.40;5.53;;;18.60;95.90;;;;;;5118923;27;46757;-71
2023/06/09 00:26:11;;;;;;;9.32;5.68;;;18.60;95.90;;;;;;5121599;27;45165;-72
2023/06/09 00:28:38;;;;;;;8.23;5.03;;;18.60;95.70;;;;;;5111968;27;45376;-72
2023/06/09 00:31:05;;;;;;;9.05;5.22;;;18.60;95.50;;;;;;5116142;27;45463;-72
2023/06/09 00:33:33;;;;;;;8.23;5.60;;;18.60;95.50;;;;;;5119537;27;46341;-72
2023/06/09 00:36:00;;;;;;;9.05;5.65;;;18.60;95.50;;;;;;5117272;27;45301;-72
2023/06/09 00:38:27;;;;;;;8.15;5.68;;;18.60;95.60;;;;;;5121968;27;45315;-72
2023/06/09 00:40:54;;;;;;;9.43;5.55;;;18.60;95.00;;;;;;5114874;27;45244;-73
2023/06/09 00:43:21;;;;;;;8.02;5.30;;;18.60;95.40;;;;;;5110135;27;47668;-72
2023/06/09 00:45:48;;;;;;;6.18;4.97;;;18.50;95.70;;;;;;5117972;27;45383;-72
2023/06/09 00:48:14;;;;;;;6.53;4.93;;;18.50;95.40;;;;;;5126907;27;45383;-72
2023/06/09 00:50:43;;;;;;;11.95;5.65;;;18.50;95.50;;;;;;5117492;27;45162;-72
2023/06/09 00:53:11;;;;;;;11.63;5.57;;;18.40;95.50;;;;;;5127653;27;46255;-72
2023/06/09 00:55:40;;;;;;;7.55;5.65;;;18.40;95.70;;;;;;5127400;27;45209;-72
2023/06/09 00:58:08;;;;;;;7.88;5.60;;;18.40;95.90;;;;;;5125774;27;45344;-72
2023/06/09 01:00:38;;;;;;;8.88;5.93;;;18.40;96.00;;;;;;5128394;27;45296;-73
2023/06/09 01:03:09;;;;;;;8.82;5.82;;;18.40;96.30;;;;;;5119379;27;45673;-72
2023/06/09 01:05:38;;;;;;;8.40;5.15;;;18.30;96.20;;;;;;5120037;27;45326;-72
2023/06/09 01:08:15;;;;;;;8.73;6.00;;;18.20;96.50;;;;;;5127959;27;45284;-72
2023/06/09 01:10:51;;;;;;;10.02;5.72;;;18.10;97.00;;;;;;5112680;27;45602;-72
2023/06/09 01:13:25;;;;;;;8.82;6.15;;;18.00;97.40;;;;;;5114060;27;48674;-72
2023/06/09 01:15:58;;;;;;;9.05;6.13;;;18.10;96.90;;;;;;5130313;27;45451;-72
2023/06/09 01:18:26;;;;;;;10.82;6.35;;;18.20;96.70;;;;;;5117037;27;45149;-72
2023/06/09 01:21:06;;;;;;;10.98;6.88;;;18.00;96.80;;;;;;5127477;27;45532;-72
2023/06/09 01:23:40;;;;;;;8.43;6.22;;;17.80;97.20;;;;;;5111330;27;46483;-72
2023/06/09 01:26:09;;;;;;;10.30;5.93;;;17.80;97.10;;;;;;5120235;27;45386;-72
2023/06/09 01:28:38;;;;;;;8.30;5.32;;;17.80;97.50;;;;;;5111442;27;45318;-72
2023/06/09 01:31:08;;;;;;;10.52;6.43;;;18.00;97.20;;;;;;5126833;27;45474;-72
2023/06/09 01:33:37;;;;;;;10.27;5.95;;;18.00;97.20;;;;;;5119124;27;46290;-72
2023/06/09 01:36:05;;;;;;;8.65;6.05;;;18.00;97.40;;;;;;5121060;27;45344;-72
2023/06/09 01:38:32;;;;;;;9.63;6.57;;;18.20;97.10;;;;;;5127975;27;45361;-72
2023/06/09 01:40:59;;;;;;;10.07;5.60;;;18.20;96.90;;;;;;5115807;27;45246;-72
2023/06/09 01:43:27;;;;;;;9.75;6.65;;;18.10;97.20;;;;;;5119539;27;45193;-72
2023/06/09 01:45:54;;;;;;;11.88;7.80;;;18.00;97.30;;;;;;5127056;27;45579;-72
2023/06/09 01:48:29;;;;;;;14.13;8.50;;;17.80;97.40;;;;;;5127220;27;45343;-72
2023/06/09 01:51:03;;;;;;;9.13;7.10;;;17.70;98.00;;;;;;5123775;27;45222;-72
2023/06/09 01:53:33;;;;;;;12.82;8.45;;;17.80;98.60;;;;;;5113733;27;45424;-72
2023/06/09 01:56:07;;;;;;;11.75;6.97;;;18.00;97.70;;;;;;5119111;27;45383;-72
2023/06/09 01:58:40;;;;;;;9.73;6.97;;;18.10;97.60;;;;;;5121414;27;45374;-72
2023/06/09 02:01:08;;;;;;;13.27;7.47;;;18.30;97.30;;;;;;5118528;27;45334;-71
2023/06/09 02:03:39;;;;;;;11.90;7.28;;;18.30;96.90;;;;;;5123640;27;47092;-72
2023/06/09 02:06:07;;;;;;;16.30;8.18;;;18.10;97.20;;;;;;5126915;27;45421;-72
2023/06/09 02:08:33;;;;;;;13.05;7.50;;;18.10;97.40;;;;;;5126891;27;45389;-72
2023/06/09 02:11:00;;;;;;;12.07;8.23;;;18.10;97.40;;;;;;5115569;27;45247;-72
2023/06/09 02:13:27;;;;;;;12.35;7.40;;;18.00;97.50;;;;;;5112860;27;45193;-72
2023/06/09 02:15:55;;;;;;;14.77;8.20;;;17.90;97.50;;;;;;5112571;27;45529;-72
2023/06/09 02:18:22;;;;;;;10.38;6.57;;;17.80;97.60;;;;;;5122972;27;45452;-72
2023/06/09 02:20:50;;;;;;;14.55;7.30;;;17.70;97.50;;;;;;5125157;27;45435;-73
2023/06/09 02:23:19;;;;;;;15.02;7.15;;;17.70;97.70;;;;;;5126439;27;45306;-72
2023/06/09 02:25:46;;;;;;;9.45;6.80;;;17.70;98.10;;;;;;5125419;27;45352;-71
2023/06/09 02:28:13;;;;;;;10.82;7.13;;;17.70;98.10;;;;;;5124427;27;45328;-72
2023/06/09 02:30:40;;;;;;;9.52;6.82;;;17.70;97.90;;;;;;5125692;27;45591;-72
2023/06/09 02:33:10;;;;;;;12.05;6.88;;;17.70;97.60;;;;;;5114741;27;45312;-72
2023/06/09 02:35:37;;;;;;;10.68;7.20;;;17.60;97.90;;;;;;5115867;27;45779;-72
2023/06/09 02:38:06;;;;;;;10.82;6.88;;;17.60;98.20;;;;;;5125916;27;45240;-72
2023/06/09 02:40:33;;;;;;;10.60;7.35;;;17.60;98.60;;;;;;5125819;27;45269;-72
2023/06/09 02:43:00;;;;;;;11.05;7.45;;;17.60;98.00;;;;;;5118608;27;47836;-71
2023/06/09 02:45:27;;;;;;;10.48;7.32;;;17.50;98.40;;;;;;5116283;27;45336;-72
2023/06/09 02:47:54;;;;;;;12.80;7.80;;;17.50;99.00;;;;;;5124471;27;45252;-71
2023/06/09 02:50:23;;;;;;;10.05;7.80;;;17.50;98.70;;;;;;5121262;27;45585;-71
2023/06/09 02:52:49;;;;;;;11.50;7.30;;;17.50;98.50;;;;;;5116142;27;45322;-72
2023/06/09 02:55:18;;;;;;;12.10;7.40;;;17.50;98.50;;;;;;5122663;27;45409;-71
2023/06/09 02:57:45;;;;;;;9.00;7.10;;;17.50;98.40;;;;;;5115763;27;45377;-72
2023/06/09 03:00:12;;;;;;;13.13;7.82;;;17.50;98.50;;;;;;5117339;27;45448;-72
2023/06/09 03:02:40;;;;;;;11.27;7.60;;;17.40;98.50;;;;;;5125079;27;45405;-71
2023/06/09 03:05:09;;;;;;;16.23;7.05;;;17.30;98.90;;;;;;5125240;27;45402;-72
2023/06/09 03:07:37;;;;;;;10.00;7.53;;;17.30;98.80;;;;;;5117243;27;45498;-72
2023/06/09 03:10:05;;;;;;;12.07;8.20;;;17.20;98.70;;;;;;5120217;27;45403;-72
2023/06/09 03:12:32;;;;;;;8.82;6.80;;;17.20;98.70;;;;;;5117726;27;47412;-71
2023/06/09 03:14:59;;;;;;;13.25;7.05;;;17.20;98.80;;;;;;5113443;27;45310;-72
2023/06/09 03:17:26;;;;;;;17.33;6.82;;;17.20;98.40;;;;;;5108084;27;45348;-72
2023/06/09 03:19:53;;;;;;;10.75;6.93;;;17.20;98.70;;;;;;5122805;27;45390;-72
2023/06/09 03:22:20;;;;;;;10.35;6.50;;;17.30;98.60;;;;;;5117019;27;46997;-71
2023/06/09 03:24:49;;;;;;;9.15;7.03;;;17.20;98.30;;;;;;5122351;27;45468;-72
2023/06/09 03:27:15;;;;;;;12.85;6.70;;;17.20;98.50;;;;;;5125084;27;45287;-71
2023/06/09 03:29:42;;;;;;;12.32;6.88;;;17.20;98.50;;;;;;5125001;27;45536;-71
2023/06/09 03:32:09;;;;;;;9.27;6.95;;;17.10;98.40;;;;;;5118968;27;46546;-72
2023/06/09 03:34:36;;;;;;;10.20;7.00;;;17.10;98.80;;;;;;5124541;27;45407;-71
2023/06/09 03:37:04;;;;;;;9.70;6.97;;;17.10;98.70;;;;;;5121460;27;45503;-71
2023/06/09 03:39:30;;;;;;;15.05;6.88;;;17.20;98.90;;;;;;5123813;27;45606;-72
2023/06/09 03:41:59;;;;;;;11.48;7.30;;;17.20;98.90;;;;;;5119332;27;46315;-71
2023/06/09 03:44:25;;;;;;;13.80;7.25;;;17.20;98.70;;;;;;5113593;27;45443;-71
2023/06/09 03:46:52;;;;;;;12.43;7.32;;;17.20;98.50;;;;;;5122973;27;45422;-71
2023/06/09 03:49:19;;;;;;;11.13;7.10;;;17.20;98.40;;;;;;5124749;27;45413;-72
2023/06/09 03:51:45;;;;;;;17.50;7.65;;;17.20;98.40;;;;;;5114622;27;45491;-71
2023/06/09 03:54:12;;;;;;;16.88;7.30;;;17.20;98.70;;;;;;5120713;27;45349;-71
2023/06/09 03:56:39;;;;;;;8.73;6.80;;;17.20;99.00;;;;;;5116600;27;45434;-72
2023/06/09 03:59:08;;;;;;;11.45;7.20;;;17.20;98.50;;;;;;5113209;27;45486;-71
2023/06/09 04:01:34;;;;;;;11.10;6.70;;;17.20;98.70;;;;;;5116376;27;47449;-71
2023/06/09 04:04:01;;;;;;;8.00;6.22;;;17.30;98.70;;;;;;5112638;27;45280;-71
2023/06/09 04:06:28;;;;;;;10.00;6.75;;;17.30;98.50;;;;;;5114479;27;45295;-71
2023/06/09 04:08:55;;;;;;;11.27;7.28;;;17.30;98.30;;;;;;5121896;27;45622;-71
2023/06/09 04:11:22;;;;;;;10.13;6.95;;;17.30;98.30;;;;;;5117885;27;46240;-71
2023/06/09 04:13:48;;;;;;;9.13;6.78;;;17.30;98.40;;;;;;5119040;27;46179;-71
2023/06/09 04:16:17;;;;;;;12.90;7.60;;;17.30;98.70;;;;;;5124180;27;45370;-72
2023/06/09 04:18:43;;;;;;;11.20;7.78;;;17.40;98.90;;;;;;5114903;27;45448;-72
2023/06/09 04:21:11;;;;;;;13.40;7.53;;;17.40;98.70;;;;;;5120086;27;46070;-72
2023/06/09 04:23:38;;;;;;;10.70;8.35;;;17.50;98.80;;;;;;5123834;27;45270;-72
2023/06/09 04:26:05;;;;;;;13.15;8.30;;;17.60;98.80;;;;;;5119409;27;45351;-71
2023/06/09 04:28:33;;;;;;;16.95;7.80;;;17.60;99.00;;;;;;5125055;27;45361;-71
2023/06/09 04:31:00;;;;;;;11.70;8.68;;;17.70;98.90;;;;;;5122103;27;46731;-72
2023/06/09 04:33:28;;;;;;;13.60;8.45;;;17.80;98.90;;;;;;5125899;27;45391;-71
2023/06/09 04:35:55;;;;;;;14.00;8.18;;;17.90;98.70;;;;;;5118737;27;45537;-69
2023/06/09 04:38:23;;;;;;;15.00;8.60;;;18.00;98.60;;;;;;5119091;27;45410;-72
2023/06/09 04:40:50;;;;;;;9.73;7.63;;;18.00;98.30;;;;;;5115378;27;47537;-72
2023/06/09 04:43:18;;;;;;;11.07;7.32;;;18.00;98.30;;;;;;5121758;27;45472;-71
2023/06/09 04:45:47;;;;;;;14.90;8.43;;;18.10;98.30;;;;;;5119053;27;45473;-71
2023/06/09 04:48:13;;;;;;;11.75;8.25;;;18.20;98.10;;;;;;5108742;27;45352;-71
2023/06/09 04:50:44;;;;;;;13.18;7.80;;;18.20;97.70;;;;;;5114888;27;47619;-71
2023/06/09 04:53:11;;;;;;;10.82;8.25;;;18.30;97.70;;;;;;5114246;27;45390;-71
2023/06/09 04:55:38;;;;;;;11.10;7.47;;;18.30;97.70;;;;;;5115523;27;45410;-71
2023/06/09 04:58:05;;;;;;;9.40;6.93;;;18.30;97.20;;;;;;5114700;27;45308;-71
2023/06/09 05:00:32;;;;;;;9.82;6.22;;;18.30;97.30;;;;;;5118170;27;46349;-71
2023/06/09 05:02:59;;;;;;;7.68;6.63;;;18.60;97.00;;;;;;5122363;27;45215;-71
2023/06/09 05:05:26;;;;;;;8.50;6.57;;;18.80;96.00;;;;;;5118446;27;45283;-72
2023/06/09 05:07:55;;;;;;;8.90;6.82;;;18.90;95.80;;;;;;5121854;27;45368;-71
2023/06/09 05:10:21;;;;;;;10.52;5.80;;;19.00;95.60;;;;;;5112595;27;46387;-71
2023/06/09 05:12:49;;;;;;;10.85;6.18;;;19.10;95.30;;;;;;5118037;27;45711;-71
2023/06/09 05:15:16;;;;;;;8.18;6.25;;;19.10;94.90;;;;;;5126349;27;45433;-72
2023/06/09 05:17:43;;;;;;;8.75;6.22;;;19.20;94.80;;;;;;5121702;27;45485;-72
2023/06/09 05:20:10;;;;;;;8.15;5.97;;;19.30;94.80;;;;;;5119854;27;46262;-72
2023/06/09 05:22:37;;;;;;;9.70;6.15;;;19.30;94.50;;;;;;5115127;27;45417;-71
2023/06/09 05:25:09;;;;;;;7.78;5.13;;;19.30;94.40;;;;;;5118214;27;45393;-72
2023/06/09 05:27:36;;;;;;;9.02;5.90;;;19.30;94.10;;;;;;5124364;27;45463;-71
2023/06/09 05:30:02;;;;;;;13.10;5.47;;;19.40;94.10;;;;;;5112340;27;47273;-71
2023/06/09 05:32:29;;;;;;;6.35;5.03;;;19.40;93.90;;;;;;5119488;27;45484;-72
2023/06/09 05:34:56;;;;;;;7.28;5.15;;;19.40;93.90;;;;;;5123325;27;45421;-70
2023/06/09 05:37:23;;;;;;;7.28;4.93;;;19.50;93.90;;;;;;5115751;27;45311;-71
2023/06/09 05:39:49;;;;;;;6.75;5.40;;;19.60;93.30;;;;;;5119456;27;45795;-70
2023/06/09 05:42:18;;;;;;;9.60;5.32;;;19.60;93.10;;;;;;5125120;27;45314;-71
2023/06/09 05:44:44;;;;;;;5.57;4.63;;;19.60;92.70;;;;;;5118146;27;45466;-71
2023/06/09 05:47:11;;;;;;;8.55;4.97;;;19.60;93.00;;;;;;5121996;27;45450;-72
2023/06/09 05:49:38;;;;;;;6.97;5.38;;;19.70;93.00;;;;;;5114203;27;45379;-71
2023/06/09 05:52:05;;;;;;;6.72;5.50;;;19.70;93.00;;;;;;5124292;27;45510;-73
2023/06/09 05:54:32;;;;;;;7.80;5.50;;;19.70;93.10;;;;;;5123486;27;45259;-71
2023/06/09 05:56:59;;;;;;;8.52;5.63;;;19.70;93.00;;;;;;5125355;27;45510;-72
2023/06/09 05:59:27;;;;;;;6.43;5.25;;;19.70;92.90;;;;;;5122197;27;47244;-71
2023/06/09 06:01:54;;;;;;;10.73;5.50;;;19.80;93.10;;;;;;5124543;27;46413;-71
2023/06/09 06:04:20;;;;;;;8.27;6.05;;;19.70;93.00;;;;;;5123446;27;45411;-71
2023/06/09 06:06:47;;;;;;;8.13;6.20;;;19.70;93.30;;;;;;5119126;27;45592;-71
2023/06/09 06:09:14;;;;;;;11.00;5.82;;;19.70;93.40;;;;;;5120532;27;47183;-70
2023/06/09 06:11:41;;;;;;;9.45;5.97;;;19.80;93.30;;;;;;5113932;27;45807;-71
2023/06/09 06:14:08;;;;;;;8.63;6.22;;;19.80;93.00;;;;;;5125431;27;45347;-69
2023/06/09 06:16:36;;;;;;;6.65;5.38;;;19.80;93.10;;;;;;5114116;27;45399;-70
2023/06/09 06:19:03;;;;;;;8.98;5.78;;;19.80;93.20;;;;;;5114247;27;47169;-70
2023/06/09 06:21:30;;;;;;;8.45;5.45;;;19.80;92.60;;;;;;5114581;27;45843;-71
2023/06/09 06:23:57;;;;;;;6.13;5.28;;;19.80;92.60;;;;;;5116156;27;45394;-70
2023/06/09 06:26:23;;;;;;;8.48;5.20;;;19.80;92.80;;;;;;5119168;27;45580;-71
2023/06/09 06:28:50;;;;;;;7.55;4.82;;;19.90;92.30;;;;;;5122830;27;47899;-71
2023/06/09 06:31:17;;;;;;;6.65;4.65;;;19.90;92.20;;;;;;5121932;27;45521;-70
2023/06/09 06:33:46;;;;;;;6.82;4.68;;;20.00;92.30;;;;;;5113933;27;45395;-71
2023/06/09 06:36:14;;;;;;;8.65;5.45;;;20.00;92.20;;;;;;5121690;27;45329;-71
2023/06/09 06:38:40;;;;;;;6.18;4.95;;;20.00;92.40;;;;;;5106272;27;45345;-70
2023/06/09 06:41:07;;;;;;;7.05;5.25;;;20.10;92.30;;;;;;5118651;27;45461;-70
2023/06/09 06:43:34;;;;;;;5.55;4.57;;;20.10;92.20;;;;;;5118355;27;45383;-71
2023/06/09 06:46:01;;;;;;;5.90;4.25;;;20.10;92.20;;;;;;5115939;27;45227;-71
2023/06/09 06:48:28;;;;;;;6.72;4.35;;;20.10;92.20;;;;;;5123383;27;48700;-71
2023/06/09 06:50:56;;;;;;;8.15;4.88;;;20.20;91.90;;;;;;5122839;27;45370;-71
2023/06/09 06:53:23;;;;;;;5.80;4.72;;;20.20;91.70;;;;;;5109698;27;45353;-72
2023/06/09 06:55:50;;;;;;;5.20;4.13;;;20.20;91.70;;;;;;5119919;27;45409;-72
2023/06/09 06:58:17;;;;;;;6.15;4.60;;;20.30;91.60;;;;;;5110015;27;45435;-72
2023/06/09 07:00:43;;;;;;;6.88;4.20;;;20.30;91.60;;;;;;5121515;27;45359;-71
2023/06/09 07:03:12;;;;;;;6.13;4.28;;;20.30;91.60;;;;;;5123891;27;45334;-72
2023/06/09 07:05:39;;;;;;;5.00;3.85;;;20.30;91.10;;;;;;5123961;27;45384;-71
2023/06/09 07:08:07;;;;;;;6.10;4.47;;;20.40;91.40;;;;;;5112063;27;46336;-71
2023/06/09 07:10:34;;;;;;;5.22;4.07;;;20.40;91.30;;;;;;5108132;27;45713;-71
2023/06/09 07:13:00;;;;;;;8.05;4.45;;;20.40;91.30;;;;;;5119451;27;45719;-72
2023/06/09 07:15:27;;;;;;;7.95;4.50;;;20.40;91.10;;;;;;5116524;27;45552;-72
2023/06/09 07:17:54;;;;;;;12.88;4.57;;;20.40;91.30;;;;;;5107731;27;47005;-72
2023/06/09 07:20:21;;;;;;;6.15;4.53;;;20.40;91.10;;;;;;5116278;27;45433;-71
2023/06/09 07:22:51;;;;;;;7.15;4.25;;;20.40;91.00;;;;;;5119431;27;45292;-72
2023/06/09 07:25:20;;;;;;;6.97;4.32;;;20.40;91.20;;;;;;5115420;27;45709;-72
2023/06/09 07:27:47;;;;;;;5.15;3.90;;;20.50;91.40;;;;;;5114705;27;48219;-71
2023/06/09 07:30:14;;;;;;;6.63;4.55;;;20.50;91.40;;;;;;5119812;27;45489;-72
2023/06/09 07:32:41;;;;;;;5.78;3.67;;;20.60;91.00;;;;;;5123326;27;45429;-72
2023/06/09 07:35:10;;;;;;;6.93;4.35;;;20.50;91.00;;;;;;5124797;27;45267;-72
2023/06/09 07:37:39;;;;;;;5.75;4.40;;;20.60;90.80;;;;;;5120727;27;47388;-74
2023/06/09 07:40:08;;;;;;;5.47;4.40;;;20.50;91.00;;;;;;5124173;27;45449;-73
2023/06/09 07:42:36;;;;;;;6.32;4.22;;;20.60;91.00;;;;;;5114942;27;45436;-72
2023/06/09 07:45:03;;;;;;;6.97;4.55;;;20.60;91.00;;;;;;5119721;27;45387;-72
2023/06/09 07:47:30;;;;;;;6.13;4.10;;;20.60;90.50;;;;;;5104687;27;47451;-71
2023/06/09 07:49:57;;;;;;;6.70;3.85;;;20.60;90.70;;;;;;5123132;27;45287;-73
2023/06/09 07:52:23;;;;;;;6.13;3.83;;;20.60;90.70;;;;;;5125937;27;45268;-71
2023/06/09 07:54:50;;;;;;;4.85;4.18;;;20.60;91.00;;;;;;5122921;27;45314;-72
2023/06/09 07:57:17;;;;;;;8.43;4.30;;;20.70;90.30;;;;;;5109649;27;46465;-72
2023/06/09 07:59:46;;;;;;;6.07;4.03;;;20.70;90.70;;;;;;5125079;27;45214;-72
2023/06/09 08:02:13;;;;;;;6.80;3.83;;;20.70;90.60;;;;;;5123951;27;45503;-70
2023/06/09 08:04:41;;;;;;;3.97;3.13;;;20.70;90.50;;;;;;5119368;27;45419;-71
2023/06/09 08:07:08;;;;;;;5.65;4.70;;;20.70;90.90;;;;;;5114715;27;47525;-71
2023/06/09 08:09:35;;;;;;;8.00;4.57;;;20.70;90.40;;;;;;5127147;27;45505;-72
2023/06/09 08:12:02;;;;;;;15.13;4.70;;;20.70;90.40;;;;;;5118242;27;45324;-71
2023/06/09 08:14:29;;;;;;;4.45;3.42;;;20.70;90.60;;;;;;5114572;27;45421;-71
2023/06/09 08:16:57;;;;;;;5.65;3.50;;;20.70;90.70;;;;;;5115864;27;46624;-71
2023/06/09 08:19:24;;;;;;;4.65;3.40;;;20.80;90.90;;;;;;5120810;27;45664;-71
2023/06/09 08:21:52;;;;;;;9.20;4.18;;;20.80;91.10;;;;;;5119048;27;45436;-70
2023/06/09 08:24:19;;;;;;;4.85;2.85;;;20.80;91.20;;;;;;5109612;27;45347;-72
2023/06/09 08:26:48;;;;;;;5.35;4.47;;;20.80;90.90;;;;;;5124748;27;46651;-72
2023/06/09 08:29:16;;;;;;;6.47;4.00;;;20.80;90.30;;;;;;5125827;27;45468;-72
2023/06/09 08:31:44;;;;;;;6.78;4.32;;;20.90;90.00;;;;;;5117429;27;45524;-72
2023/06/09 08:34:12;;;;;;;4.00;3.20;;;20.90;90.30;;;;;;5121284;27;45397;-71
2023/06/09 08:36:39;;;;;;;4.78;3.22;;;20.80;90.90;;;;;;5122183;27;48327;-72
2023/06/09 08:39:05;;;;;;;5.05;3.75;;;20.90;90.80;;;;;;5123922;27;45531;-72
2023/06/09 08:41:38;;;;;;;3.38;3.08;;;20.90;90.70;;;;;;5117169;27;45594;-72
2023/06/09 08:44:06;;;;;;;6.10;4.03;;;20.90;90.90;;;;;;5114883;27;45323;-72
2023/06/09 08:46:36;;;;;;;5.10;4.07;;;20.90;90.70;;;;;;5125384;27;45646;-72
2023/06/09 08:49:03;;;;;;;29.90;4.45;;;20.90;90.00;;;;;;5119751;27;46252;-73
2023/06/09 08:51:32;;;;;;;5.15;3.40;;;20.90;90.70;;;;;;5116338;27;45524;-72
2023/06/09 08:54:00;;;;;;;4.68;3.30;;;20.90;90.50;;;;;;5113643;27;45590;-72
2023/06/09 08:56:27;;;;;;;5.40;4.13;;;20.80;90.90;;;;;;5127039;27;47020;-73
2023/06/09 08:58:55;;;;;;;5.95;4.20;;;20.80;90.50;;;;;;5128019;27;45385;-73
2023/06/09 09:01:21;;;;;;;7.28;3.70;;;20.80;90.40;;;;;;5118958;27;45609;-73
2023/06/09 09:03:48;;;;;;;4.45;3.80;;;20.80;90.20;;;;;;5128194;27;45490;-73
2023/06/09 09:06:15;;;;;;;6.32;3.15;;;20.80;90.40;;;;;;5128001;27;46106;-73
2023/06/09 09:08:44;;;;;;;3.65;3.08;;;20.80;90.20;;;;;;5126569;27;45299;-72
2023/06/09 09:11:11;;;;;;;5.70;3.15;;;20.90;90.30;;;;;;5121326;27;45520;-73
2023/06/09 09:13:40;;;;;;;4.65;2.92;;;20.90;90.20;;;;;;5119711;27;45449;-72
2023/06/09 09:16:13;;;;;;;5.40;3.03;;;20.90;90.70;;;;;;5127952;27;45472;-72
2023/06/09 09:18:45;;;;;;;4.72;2.70;;;20.90;90.00;;;;;;5127616;27;45278;-72
2023/06/09 09:21:20;;;;;;;4.35;2.70;;;21.00;90.20;;;;;;5121453;27;45424;-72
2023/06/09 09:23:56;;;;;;;3.38;2.50;;;20.90;90.60;;;;;;5118840;27;45441;-72
2023/06/09 09:26:27;;;;;;;4.85;3.10;;;20.90;90.70;;;;;;5117898;27;45496;-72
2023/06/09 09:28:55;;;;;;;3.70;2.72;;;20.90;90.50;;;;;;5124675;27;46269;-72
2023/06/09 09:31:31;;;;;;;5.03;3.95;;;20.90;90.40;;;;;;5122255;27;45377;-72
2023/06/09 09:33:58;;;;;;;4.85;3.38;;;20.90;90.00;;;;;;5120605;27;45414;-73
2023/06/09 09:36:25;;;;;;;5.75;3.38;;;20.80;90.20;;;;;;5119731;27;46997;-72
2023/06/09 09:38:55;;;;;;;5.32;4.30;;;20.80;90.00;;;;;;5116687;27;45474;-72
2023/06/09 09:41:22;;;;;;;4.95;3.97;;;20.80;90.10;;;;;;5113474;27;45388;-72
2023/06/09 09:43:55;;;;;;;5.50;4.40;;;20.60;90.30;;;;;;5126345;27;45507;-72
2023/06/09 09:46:22;;;;;;;4.07;2.90;;;20.50;90.70;;;;;;5119763;27;47438;-71
2023/06/09 09:48:49;;;;;;;3.05;2.67;;;20.60;90.80;;;;;;5120377;27;45531;-71
2023/06/09 09:51:16;;;;;;;4.47;3.05;;;20.70;90.70;;;;;;5116184;27;45486;-70
2023/06/09 09:53:46;;;;;;;4.45;3.10;;;20.80;90.10;;;;;;5115983;27;45394;-70
2023/06/09 09:56:18;;;;;;;4.80;3.05;;;20.80;90.00;;;;;;5120687;27;48411;-71
2023/06/09 09:58:48;;;;;;;4.95;3.30;;;20.90;90.20;;;;;;5113347;27;45418;-71
2023/06/09 10:01:16;;;;;;;2.50;2.30;;;20.90;90.00;;;;;;5120435;27;45342;-71
2023/06/09 10:03:44;;;;;;;3.88;3.28;;;20.90;90.30;;;;;;5123205;27;45391;-67
2023/06/09 10:06:14;;;;;;;3.75;2.40;;;20.90;90.60;;;;;;5124404;27;46580;-68
2023/06/09 10:08:42;;;;;;;2.55;1.98;;;20.90;91.50;;;;;;5106191;27;45327;-70
2023/06/09 10:11:09;;;;;;;2.78;2.35;;;21.00;91.70;;;;;;5103702;27;45351;-70
2023/06/09 10:13:38;;;;;;;3.30;2.30;;;21.00;91.00;;;;;;5116257;27;45407;-70
2023/06/09 10:16:07;;;;;;;6.18;2.50;;;20.90;91.20;;;;;;5112187;27;46129;-70
2023/06/09 10:18:36;;;;;;;2.78;2.17;;;21.00;91.00;;;;;;5122947;27;45273;-70
2023/06/09 10:21:03;;;;;;;4.13;2.58;;;21.00;91.10;;;;;;5121004;27;45349;-70
2023/06/09 10:23:30;;;;;;;3.53;2.20;;;21.00;91.40;;;;;;5104574;27;45351;-70
2023/06/09 10:25:57;;;;;;;3.15;2.38;;;21.00;91.70;;;;;;5107234;27;46150;-70
2023/06/09 10:28:25;;;;;;;2.72;2.30;;;21.00;91.70;;;;;;5115303;27;45369;-70
2023/06/09 10:30:54;;;;;;;2.65;2.00;;;21.00;92.00;;;;;;5110786;27;45303;-70
2023/06/09 10:33:26;;;;;;;2.50;2.17;;;21.10;92.10;;;;;;5119620;27;45607;-69
2023/06/09 10:35:57;;;;;;;2.80;2.30;;;21.10;91.90;;;;;;5116325;27;45319;-70
2023/06/09 10:38:28;;;;;;;2.83;2.30;;;21.10;91.90;;;;;;5117872;27;45295;-71
2023/06/09 10:41:03;;;;;;;2.95;1.92;;;21.10;92.00;;;;;;5113424;27;45595;-71
2023/06/09 10:43:58;;;;;;;3.03;2.22;;;21.20;92.20;;;;;;5116058;27;45399;-71
2023/06/09 10:46:46;;;;;;;2.67;2.35;;;21.10;92.20;;;;;;5111102;27;47047;-71
2023/06/09 10:49:36;;;;;;;2.55;2.13;;;21.10;92.50;;;;;;5123728;27;45350;-70
2023/06/09 10:52:03;;;;;;;4.10;2.90;;;21.20;92.20;;;;;;5120638;27;45399;-71
2023/06/09 10:54:32;;;;;;;3.25;2.83;;;21.10;93.00;;;;;;5123441;27;45418;-71
2023/06/09 10:57:01;;;;;;;3.05;2.22;;;21.10;92.40;;;;;;5119788;27;47556;-72
2023/06/09 11:00:04;;;;;;;2.53;2.10;;;21.10;92.80;;;;;;5121658;27;45478;-71
2023/06/09 11:02:34;;;;;;;3.33;2.47;;;21.10;93.00;;;;;;5122990;27;45499;-71
2023/06/09 11:05:04;;;;;;;5.32;2.10;;;21.10;92.40;;;;;;5120069;27;45386;-70
2023/06/09 11:07:32;;;;;;;3.05;2.30;;;21.10;93.00;;;;;;5118889;27;46300;-70
2023/06/09 11:10:27;;;;;;;3.08;2.28;;;21.10;93.00;;;;;;5120736;27;45777;-71
2023/06/09 11:12:55;;;;;;;2.55;2.20;;;21.10;93.10;;;;;;5110221;27;45477;-71
2023/06/09 11:15:23;;;;;;;2.95;2.30;;;21.20;92.70;;;;;;5121606;27;45400;-72
2023/06/09 11:17:52;;;;;;;4.80;2.30;;;21.10;92.90;;;;;;5125024;27;46270;-70
2023/06/09 11:20:20;;;;;;;2.45;2.00;;;21.10;93.10;;;;;;5110778;27;45363;-71
2023/06/09 11:23:03;;;;;;;3.00;2.10;;;21.20;93.40;;;;;;5120417;27;45625;-71
2023/06/09 11:25:38;;;;;;;4.07;2.92;;;21.20;93.20;;;;;;5104423;27;45316;-71
2023/06/09 11:28:24;;;;;;;2.95;2.00;;;21.20;93.30;;;;;;5102738;27;46192;-71
2023/06/09 11:31:05;;;;;;;5.00;2.50;;;21.20;93.10;;;;;;5113586;27;45514;-71
2023/06/09 11:33:50;;;;;;;3.08;2.25;;;21.20;93.00;;;;;;5122980;27;45477;-71
2023/06/09 11:36:22;;;;;;;1.90;1.70;;;21.30;92.60;;;;;;5122204;27;45572;-71
2023/06/09 11:38:50;;;;;;;3.60;2.42;;;21.30;93.10;;;;;;5115599;27;46289;-71
2023/06/09 11:41:24;;;;;;;2.55;2.10;;;21.30;92.90;;;;;;5111746;27;45577;-71
2023/06/09 11:43:52;;;;;;;2.25;2.05;;;21.30;92.90;;;;;;5108642;27;45362;-71
2023/06/09 11:46:19;;;;;;;2.22;1.90;;;21.30;92.90;;;;;;5117142;27;45545;-71
2023/06/09 11:49:04;;;;;;;3.45;2.10;;;21.30;92.90;;;;;;5102284;27;46299;-71
2023/06/09 11:51:52;;;;;;;3.20;2.22;;;21.30;92.30;;;;;;5105840;27;45496;-71
2023/06/09 11:54:20;;;;;;;3.30;2.70;;;21.30;93.00;;;;;;5112913;27;45729;-70
2023/06/09 11:56:47;;;;;;;3.67;2.45;;;21.30;93.20;;;;;;5114011;27;45489;-71
2023/06/09 11:59:15;;;;;;;2.05;1.85;;;21.30;93.30;;;;;;5121619;27;45489;-71
2023/06/09 12:01:42;;;;;;;3.45;2.03;;;21.40;92.70;;;;;;5113728;27;45285;-71
2023/06/09 12:04:11;;;;;;;2.38;1.88;;;21.40;92.20;;;;;;5122282;27;45437;-69
2023/06/09 12:06:37;;;;;;;1.98;1.75;;;21.40;92.10;;;;;;5111469;27;45316;-73
2023/06/09 12:09:18;;;;;;;2.10;1.80;;;21.40;91.70;;;;;;5121475;27;46326;-72
2023/06/09 12:11:50;;;;;;;2.80;2.00;;;21.40;91.60;;;;;;5119768;27;46028;-71
2023/06/09 12:14:17;;;;;;;2.00;1.60;;;21.40;90.80;;;;;;5111482;27;45434;-71
2023/06/09 12:16:44;;;;;;;2.78;1.65;;;21.40;91.40;;;;;;5118559;27;45438;-71
2023/06/09 12:19:12;;;;;;;2.03;1.83;;;21.40;91.10;;;;;;5110556;27;47723;-71
2023/06/09 12:21:39;;;;;;;2.28;1.77;;;21.40;91.20;;;;;;5108349;27;45264;-71
2023/06/09 12:24:06;;;;;;;2.38;1.60;;;21.40;91.10;;;;;;5119445;27;45472;-71
2023/06/09 12:26:39;;;;;;;3.72;1.65;;;21.40;90.90;;;;;;5114118;27;45635;-71
2023/06/09 12:29:05;;;;;;;1.90;1.70;;;21.30;91.10;;;;;;5120633;27;45483;-72
2023/06/09 12:31:33;;;;;;;3.45;1.80;;;21.30;91.10;;;;;;5120061;27;45473;-73
2023/06/09 12:34:01;;;;;;;2.30;2.00;;;21.40;91.00;;;;;;5121072;27;45284;-71
2023/06/09 12:36:41;;;;;;;2.25;1.70;;;21.40;91.10;;;;;;5119142;27;45498;-71
2023/06/09 12:39:17;;;;;;;5.70;1.70;;;21.40;90.90;;;;;;5116408;27;46482;-70
2023/06/09 12:41:44;;;;;;;2.30;1.75;;;21.40;91.00;;;;;;5113922;27;45470;-70
2023/06/09 12:44:20;;;;;;;1.88;1.67;;;21.30;91.10;;;;;;5125065;27;45449;-71
2023/06/09 12:46:51;;;;;;;6.75;1.90;;;21.30;91.00;;;;;;5115954;27;45509;-70
2023/06/09 12:49:18;;;;;;;1.80;1.60;;;21.30;90.80;;;;;;5121463;27;46774;-70
2023/06/09 12:51:47;;;;;;;1.73;1.52;;;21.30;91.10;;;;;;5126539;27;45288;-70